sensor_id;sensor_type;location;lat;lon;timestamp;pressure;altitude;pressure_sealevel;temperature;humidity
13821;BME280;6981;42.678;23.294;2022-07-15T00:32:12;94773.47;;;16.04;100.00
13821;BME280;6981;42.678;23.294;2022-07-15T00:34:54;95024.84;;;17.51;100.00
13821;BME280;6981;42.678;23.294;2022-07-15T00:37:40;94847.00;;;16.65;100.00
13821;BME280;6981;42.678;23.294;2022-07-15T00:40:24;94868.06;;;16.60;100.00
13821;BME280;6981;42.678;23.294;2022-07-15T00:43:04;94748.50;;;15.94;100.00
13821;BME280;6981;42.678;23.294;2022-07-15T00:45:37;94888.81;;;16.70;100.00
13821;BME280;6981;42.678;23.294;2022-07-15T00:51:42;94761.69;;;16.00;100.00
13821;BME280;6981;42.678;23.294;2022-07-15T14:53:07;94747.16;;;30.45;33.74
13821;BME280;6981;42.678;23.294;2022-07-15T14:55:37;94570.03;;;29.11;33.70
13821;BME280;6981;42.678;23.294;2022-07-15T14:58:18;94551.84;;;28.75;34.09
13821;BME280;6981;42.678;23.294;2022-07-15T15:00:54;94598.91;;;29.15;34.30
13821;BME280;6981;42.678;23.294;2022-07-15T15:03:28;94574.56;;;29.01;34.22
13821;BME280;6981;42.678;23.294;2022-07-15T15:06:11;94578.69;;;28.99;33.65
13821;BME280;6981;42.678;23.294;2022-07-15T15:12:09;94648.81;;;29.36;34.09
13821;BME280;6981;42.678;23.294;2022-07-15T15:14:42;94693.75;;;29.73;34.56
13821;BME280;6981;42.678;23.294;2022-07-15T15:17:25;94561.88;;;28.88;34.08
13821;BME280;6981;42.678;23.294;2022-07-15T15:20:06;94689.59;;;29.40;35.53
13821;BME280;6981;42.678;23.294;2022-07-15T15:22:48;94545.06;;;28.78;35.12
13821;BME280;6981;42.678;23.294;2022-07-15T15:25:30;94760.25;;;30.07;34.27
13821;BME280;6981;42.678;23.294;2022-07-15T15:28:24;94729.88;;;29.82;34.39
13821;BME280;6981;42.678;23.294;2022-07-15T15:31:05;94754.16;;;29.74;34.44
13821;BME280;6981;42.678;23.294;2022-07-15T15:33:50;94649.00;;;28.85;35.51
13821;BME280;6981;42.678;23.294;2022-07-15T15:36:20;94690.06;;;29.28;35.44
13821;BME280;6981;42.678;23.294;2022-07-15T15:39:01;94626.44;;;29.17;35.08
13821;BME280;6981;42.678;23.294;2022-07-15T15:42:08;94773.59;;;30.03;35.03
13821;BME280;6981;42.678;23.294;2022-07-15T15:44:36;94577.34;;;28.69;35.25
13821;BME280;6981;42.678;23.294;2022-07-15T15:47:13;94788.03;;;29.71;34.99
13821;BME280;6981;42.678;23.294;2022-07-15T15:49:45;94565.13;;;28.44;33.79
13821;BME280;6981;42.678;23.294;2022-07-15T15:52:18;94611.94;;;28.86;33.72
13821;BME280;6981;42.678;23.294;2022-07-15T15:54:48;94543.72;;;28.34;34.05
13821;BME280;6981;42.678;23.294;2022-07-15T15:57:46;94690.59;;;29.03;33.98
13821;BME280;6981;42.678;23.294;2022-07-15T16:00:28;94776.44;;;29.43;34.55
13821;BME280;6981;42.678;23.294;2022-07-15T16:03:09;94765.31;;;29.45;34.24
13821;BME280;6981;42.678;23.294;2022-07-15T16:05:37;94593.63;;;28.37;34.22
13821;BME280;6981;42.678;23.294;2022-07-15T16:12:15;94788.03;;;29.85;34.60
13821;BME280;6981;42.678;23.294;2022-07-15T16:24:48;94558.34;;;28.47;34.91
13821;BME280;6981;42.678;23.294;2022-07-15T16:33:12;94774.31;;;29.81;35.13
13821;BME280;6981;42.678;23.294;2022-07-15T17:46:10;94609.81;;;25.76;44.78
13821;BME280;6981;42.678;23.294;2022-07-15T17:49:40;94818.97;;;26.98;44.57
13821;BME280;6981;42.678;23.294;2022-07-15T17:52:32;94616.44;;;25.50;44.55
13821;BME280;6981;42.678;23.294;2022-07-15T17:58:25;94662.69;;;25.52;44.28
13821;BME280;6981;42.678;23.294;2022-07-15T18:17:32;94835.78;;;25.97;46.52
13821;BME280;6981;42.678;23.294;2022-07-15T18:20:29;94646.13;;;24.55;46.95
13821;BME280;6981;42.678;23.294;2022-07-15T18:26:56;94689.94;;;24.51;48.26
13821;BME280;6981;42.678;23.294;2022-07-15T18:33:21;94681.88;;;24.36;49.09
13821;BME280;6981;42.678;23.294;2022-07-15T18:36:33;94865.31;;;25.17;50.16
13821;BME280;6981;42.678;23.294;2022-07-15T18:39:35;94882.25;;;25.23;50.43
13821;BME280;6981;42.678;23.294;2022-07-15T18:42:44;94826.34;;;24.79;51.27
13821;BME280;6981;42.678;23.294;2022-07-15T18:56:19;94660.88;;;23.47;54.16
13821;BME280;6981;42.678;23.294;2022-07-15T18:59:31;94878.72;;;24.72;55.60
13821;BME280;6981;42.678;23.294;2022-07-15T19:44:46;94814.41;;;22.90;98.64
13821;BME280;6981;42.678;23.294;2022-07-15T19:47:38;94681.16;;;21.96;92.74
13821;BME280;6981;42.678;23.294;2022-07-15T19:50:19;94669.06;;;21.89;93.86
13821;BME280;6981;42.678;23.294;2022-07-15T19:53:00;94932.09;;;23.33;98.04
13821;BME280;6981;42.678;23.294;2022-07-15T19:55:41;94733.78;;;22.17;92.92
13821;BME280;6981;42.678;23.294;2022-07-15T19:58:22;94717.81;;;21.96;90.24
13821;BME280;6981;42.678;23.294;2022-07-15T20:10:36;94774.34;;;22.04;92.36
13821;BME280;6981;42.678;23.294;2022-07-15T20:13:10;94808.63;;;22.39;91.42
13821;BME280;6981;42.678;23.294;2022-07-15T20:17:33;94722.81;;;21.65;91.26
13821;BME280;6981;42.678;23.294;2022-07-15T20:20:39;94904.47;;;22.96;91.55
13821;BME280;6981;42.678;23.294;2022-07-15T20:23:45;94808.91;;;22.11;94.22
13821;BME280;6981;42.678;23.294;2022-07-15T20:26:44;94683.00;;;21.37;95.47
13821;BME280;6981;42.678;23.294;2022-07-15T20:42:41;94725.25;;;21.40;98.76
13821;BME280;6981;42.678;23.294;2022-07-15T20:45:38;94969.53;;;22.70;100.00
13821;BME280;6981;42.678;23.294;2022-07-15T20:48:45;94941.88;;;22.86;96.84
13821;BME280;6981;42.678;23.294;2022-07-15T20:51:26;94798.53;;;21.93;98.73
13821;BME280;6981;42.678;23.294;2022-07-15T20:53:56;94937.06;;;22.88;98.87
13821;BME280;6981;42.678;23.294;2022-07-15T20:56:25;94920.34;;;22.76;98.85
13821;BME280;6981;42.678;23.294;2022-07-15T20:58:56;94940.34;;;22.95;99.11
13821;BME280;6981;42.678;23.294;2022-07-15T21:01:24;94845.25;;;22.34;99.20
13821;BME280;6981;42.678;23.294;2022-07-15T21:03:52;94827.78;;;21.99;99.97
13821;BME280;6981;42.678;23.294;2022-07-15T21:06:19;94717.81;;;21.20;100.00
13821;BME280;6981;42.678;23.294;2022-07-15T21:08:47;94877.50;;;22.22;100.00
13821;BME280;6981;42.678;23.294;2022-07-15T21:11:14;94734.50;;;21.32;99.79
13821;BME280;6981;42.678;23.294;2022-07-15T21:13:42;94750.13;;;21.40;100.00
13821;BME280;6981;42.678;23.294;2022-07-15T21:16:14;94957.84;;;22.76;100.00
13821;BME280;6981;42.678;23.294;2022-07-15T21:18:42;94870.94;;;22.08;100.00
13821;BME280;6981;42.678;23.294;2022-07-15T21:21:12;94754.50;;;21.08;100.00
13821;BME280;6981;42.678;23.294;2022-07-15T21:23:39;94820.47;;;21.46;100.00
13821;BME280;6981;42.678;23.294;2022-07-15T21:26:06;94810.69;;;21.35;100.00
13821;BME280;6981;42.678;23.294;2022-07-15T21:28:51;94728.59;;;20.70;100.00
13821;BME280;6981;42.678;23.294;2022-07-15T21:31:25;94785.09;;;21.00;100.00
13821;BME280;6981;42.678;23.294;2022-07-15T21:33:54;94813.06;;;21.15;100.00
13821;BME280;6981;42.678;23.294;2022-07-15T21:36:23;94716.44;;;20.41;100.00
13821;BME280;6981;42.678;23.294;2022-07-15T21:38:50;94723.47;;;20.47;100.00
13821;BME280;6981;42.678;23.294;2022-07-15T21:41:19;94813.28;;;20.91;100.00
13821;BME280;6981;42.678;23.294;2022-07-15T21:43:48;94814.56;;;20.89;100.00
13821;BME280;6981;42.678;23.294;2022-07-15T21:46:16;94810.22;;;20.83;100.00
13821;BME280;6981;42.678;23.294;2022-07-15T21:48:48;94897.59;;;21.21;100.00
13821;BME280;6981;42.678;23.294;2022-07-15T21:51:16;94803.84;;;20.67;100.00
13821;BME280;6981;42.678;23.294;2022-07-15T21:53:44;94734.13;;;20.13;100.00
13821;BME280;6981;42.678;23.294;2022-07-15T21:56:12;94793.44;;;20.49;100.00
13821;BME280;6981;42.678;23.294;2022-07-15T21:58:40;94737.03;;;19.95;100.00
13821;BME280;6981;42.678;23.294;2022-07-15T22:01:09;94738.25;;;20.04;100.00
13821;BME280;6981;42.678;23.294;2022-07-15T22:03:37;94777.88;;;20.12;100.00
13821;BME280;6981;42.678;23.294;2022-07-15T22:06:07;94892.56;;;20.91;100.00
13821;BME280;6981;42.678;23.294;2022-07-15T22:08:34;94966.31;;;21.25;100.00
13821;BME280;6981;42.678;23.294;2022-07-15T22:11:04;94857.47;;;20.65;100.00
13821;BME280;6981;42.678;23.294;2022-07-15T22:13:32;94709.94;;;19.70;100.00
13821;BME280;6981;42.678;23.294;2022-07-15T22:16:00;94734.16;;;19.68;100.00
13821;BME280;6981;42.678;23.294;2022-07-15T22:18:28;94681.13;;;19.38;100.00
13821;BME280;6981;42.678;23.294;2022-07-15T22:20:55;94678.34;;;19.33;100.00
13821;BME280;6981;42.678;23.294;2022-07-15T22:23:28;94955.44;;;20.98;100.00
13821;BME280;6981;42.678;23.294;2022-07-15T22:25:57;94728.16;;;19.33;100.00
13821;BME280;6981;42.678;23.294;2022-07-15T22:28:24;94767.91;;;19.63;100.00
13821;BME280;6981;42.678;23.294;2022-07-15T22:30:54;94861.72;;;20.33;100.00
13821;BME280;6981;42.678;23.294;2022-07-15T22:33:21;94803.13;;;19.93;100.00
13821;BME280;6981;42.678;23.294;2022-07-15T22:35:48;94797.84;;;19.81;100.00
13821;BME280;6981;42.678;23.294;2022-07-15T22:38:18;94696.38;;;19.15;100.00
13821;BME280;6981;42.678;23.294;2022-07-15T22:40:59;94815.53;;;19.88;100.00
13821;BME280;6981;42.678;23.294;2022-07-15T22:43:26;94707.63;;;19.05;100.00
13821;BME280;6981;42.678;23.294;2022-07-15T22:45:59;94842.63;;;19.96;100.00
13821;BME280;6981;42.678;23.294;2022-07-15T22:48:27;94961.19;;;20.74;100.00
13821;BME280;6981;42.678;23.294;2022-07-15T22:50:54;94746.00;;;19.32;100.00
13821;BME280;6981;42.678;23.294;2022-07-15T22:53:21;94863.38;;;19.94;100.00
13821;BME280;6981;42.678;23.294;2022-07-15T22:55:51;94967.94;;;20.64;100.00
13821;BME280;6981;42.678;23.294;2022-07-15T22:58:26;94813.72;;;19.48;100.00
13821;BME280;6981;42.678;23.294;2022-07-15T23:01:07;94826.13;;;19.71;100.00
13821;BME280;6981;42.678;23.294;2022-07-15T23:03:34;94995.09;;;20.61;100.00
13821;BME280;6981;42.678;23.294;2022-07-15T23:06:01;94988.03;;;20.67;100.00
13821;BME280;6981;42.678;23.294;2022-07-15T23:08:28;94871.84;;;19.91;100.00
13821;BME280;6981;42.678;23.294;2022-07-15T23:10:58;94850.28;;;19.53;100.00
13821;BME280;6981;42.678;23.294;2022-07-15T23:13:32;94986.97;;;20.40;100.00
13821;BME280;6981;42.678;23.294;2022-07-15T23:15:59;94892.84;;;19.88;100.00
13821;BME280;6981;42.678;23.294;2022-07-15T23:18:41;94747.91;;;18.97;100.00
13821;BME280;6981;42.678;23.294;2022-07-15T23:21:22;94791.03;;;19.22;100.00
13821;BME280;6981;42.678;23.294;2022-07-15T23:24:04;94808.75;;;19.28;100.00
13821;BME280;6981;42.678;23.294;2022-07-15T23:26:35;95008.63;;;20.43;100.00
13821;BME280;6981;42.678;23.294;2022-07-15T23:32:32;94756.44;;;19.11;100.00
13821;BME280;6981;42.678;23.294;2022-07-15T23:35:00;94721.00;;;18.82;100.00
13821;BME280;6981;42.678;23.294;2022-07-15T23:37:27;94913.38;;;19.87;100.00
13821;BME280;6981;42.678;23.294;2022-07-15T23:39:54;94743.31;;;18.81;100.00
13821;BME280;6981;42.678;23.294;2022-07-15T23:42:22;94814.47;;;19.09;100.00
13821;BME280;6981;42.678;23.294;2022-07-15T23:44:49;95012.41;;;20.07;100.00
13821;BME280;6981;42.678;23.294;2022-07-15T23:47:22;94772.16;;;18.72;100.00
13821;BME280;6981;42.678;23.294;2022-07-15T23:49:54;94754.41;;;18.54;100.00
13821;BME280;6981;42.678;23.294;2022-07-15T23:52:22;94982.75;;;20.04;100.00
13821;BME280;6981;42.678;23.294;2022-07-15T23:54:50;94787.53;;;18.82;100.00
13821;BME280;6981;42.678;23.294;2022-07-15T23:57:17;94897.56;;;19.57;100.00
13821;BME280;6981;42.678;23.294;2022-07-15T23:59:45;94809.50;;;19.00;100.00
